Tiempo atmosférico en la estación meteorológica de Les Planes d?Hostoles, Girona (337 m.)



Fecha
DESCASC
Temp. máxima en grados centígrados (hora)
DESCASC
Temp. mínima en grados centígrados (hora)
DESCASC
Temp. media en grados centígrados
DESCASC
Racha de viento máxima en m/sg (hora)
DESCASC
Velocidad máxima media en intervalos de 10 minutos(hora)
DESCASC
Precipitaciones diarias en mm
DESCASC
Precipitaciones de 00:00 a 06:00 en mm
DESCASC
Precipitaciones de 06:00 a 12:00 en mm
DESCASC
Precipitaciones de 12:00 a 18:00 en mm
DESCASC
Precipitaciones de 18:00 a 24:00 en mm
DESCASC

Gráficas

Temp. máximas Temp. mínimas Temp. medias Precipitaciones Rachas de viento máximas Velocidades máximas media en intervalos de 10 minutos

Datos horarios

Fecha y hora oficial Temperatura (ºC) Velocidad del viento (km/h) Dirección del viento Racha (km/h) Dirección de racha Precipitación (mm) Presión (hPa) Tendencia (hPa) Humedad (%)
2019-09-21 23:00:00 15.9 0 Calma 4 Este 0 -- -- 99
2019-09-21 22:00:00 16.9 0 Calma 2 Este 0 -- -- 99
2019-09-21 21:00:00 17.2 0 Calma 2 Este 0 -- -- 98
2019-09-21 20:00:00 18 0 Calma 2 Sudeste 0 -- -- 97
2019-09-21 19:00:00 18.7 0 Calma 4 Noroeste 0 -- -- 98
2019-09-21 18:00:00 18.9 0 Calma 6 Noroeste 0 -- -- 100
2019-09-21 17:00:00 18 0 Calma 4 Oeste 0.2 -- -- 100
2019-09-21 16:00:00 17.8 0 Calma 8 Sudoeste 0.6 -- -- 100
2019-09-21 15:00:00 17.8 3 Sur 9 Noroeste 0.6 -- -- 100
2019-09-21 14:00:00 17.5 3 Noroeste 10 Noroeste 0.4 -- -- 100
2019-09-21 13:00:00 17.2 3 Este 5 Este 0.6 -- -- 100
2019-09-21 12:00:00 17.2 0 Calma 4 Nordeste 0.2 -- -- 100
2019-09-21 11:00:00 17.2 0 Calma 4 Sudeste 5.2 -- -- 99
2019-09-21 10:00:00 17.4 0 Calma 6 Norte 2.6 -- -- 99
2019-09-21 09:00:00 17.4 2 Nordeste 7 Sudoeste 0 -- -- 99
2019-09-21 08:00:00 17.1 0 Calma 9 Noroeste 0 -- -- 100
2019-09-21 07:00:00 16.8 0 Calma 5 Sudoeste 0 -- -- 100
2019-09-21 06:00:00 15.8 0 Calma 4 Este 0 -- -- 100
2019-09-21 05:00:00 15.2 0 Calma 3 Nordeste 0 -- -- 99
2019-09-21 04:00:00 15 0 Calma 4 Este 0 -- -- 98
2019-09-21 03:00:00 15.4 0 Calma 0 Calma 0 -- -- 97
2019-09-21 02:00:00 16.3 0 Calma 2 Este 0 -- -- 97
2019-09-21 01:00:00 17 0 Calma 2 Este 0 -- -- 96
2019-09-21 00:00:00 18 0 Calma 2 Este 0 -- -- 93
2019-09-20 23:00:00 19.2 0 Calma 4 Este 0 -- -- 91
2019-09-20 22:00:00 19.5 0 Calma 6 Sudeste 0 -- -- 89
2019-09-20 21:00:00 20.1 0 Calma 5 Sudeste 0 -- -- 86
2019-09-20 20:00:00 21 0 Calma 7 Sudeste 0 -- -- 84
2019-09-20 19:00:00 22.5 0 Calma 8 Sudoeste 0 -- -- 78
2019-09-20 18:00:00 24.2 2 Noroeste 11 Este 0 -- -- 70
2019-09-20 17:00:00 25.9 2 Oeste 9 Oeste 0 -- -- 60
2019-09-20 16:00:00 25.6 2 Sudoeste 11 Este 0 -- -- 58
2019-09-20 15:00:00 25.7 4 Este 12 Este 0 -- -- 57
2019-09-20 14:00:00 24.7 3 Oeste 7 Sudeste 0 -- -- 60
2019-09-20 13:00:00 22.9 0 Calma 8 Oeste 0 -- -- 68
2019-09-20 12:00:00 20.3 0 Calma 5 Sudeste 0 -- -- 88
2019-09-20 11:00:00 18.7 0 Calma 5 Oeste 0 -- -- 100
2019-09-20 10:00:00 16.4 0 Calma 4 Este 0 -- -- 100
2019-09-20 09:00:00 14.8 0 Calma 3 Nordeste 0 -- -- 100
2019-09-20 08:00:00 14.5 2 Nordeste 3 Este 0 -- -- 100
2019-09-20 07:00:00 14.4 2 Este 3 Este 0 -- -- 100
2019-09-20 06:00:00 14.3 0 Calma 3 Nordeste 0 -- -- 100
2019-09-20 05:00:00 14.4 0 Calma 4 Nordeste 0 -- -- 100
2019-09-20 04:00:00 14.2 0 Calma 4 Nordeste 0 -- -- 100
2019-09-20 03:00:00 14.2 3 Este 5 Nordeste 0 -- -- 99
2019-09-20 02:00:00 14.8 2 Este 4 Este 0 -- -- 99
2019-09-20 01:00:00 15.6 2 Este 8 Noroeste 0 -- -- 99
2019-09-20 00:00:00 16.3 0 Calma 6 Noroeste 0 -- -- 99
2019-09-19 23:00:00 16.7 0 Calma 8 Noroeste 0.2 -- -- 98
2019-09-19 22:00:00 17.1 0 Calma 3 Oeste 0.2 -- -- 99
2019-09-19 21:00:00 17.3 0 Calma 4 Sudoeste 0.4 -- -- 98
2019-09-19 20:00:00 17.4 0 Calma 4 Nordeste 1 -- -- 98
2019-09-19 19:00:00 17.6 0 Calma 4 Este 0.2 -- -- 97
2019-09-19 18:00:00 18.2 2 Este 19 Noroeste 15 -- -- 92
2019-09-19 17:00:00 24 7 Noroeste 23 Noroeste 0 -- -- 61
2019-09-19 16:00:00 26.8 3 Sudeste 12 Este 0 -- -- 55
2019-09-19 15:00:00 27.4 4 Sudeste 14 Sudeste 0 -- -- 52
2019-09-19 14:00:00 26.5 2 Este 8 Oeste 0 -- -- 54
2019-09-19 13:00:00 24.3 2 Oeste 7 Sur 0 -- -- 60
2019-09-19 12:00:00 21.4 2 Sudoeste 6 Sudeste 0 -- -- 74
2019-09-19 11:00:00 18.2 2 Este 5 Sudeste 0 -- -- 100
2019-09-19 10:00:00 15.7 0 Calma 4 Este 0 -- -- 100
2019-09-19 09:00:00 13.1 0 Calma 3 Nordeste 0 -- -- 100
2019-09-19 08:00:00 12.5 0 Calma 4 Nordeste 0 -- -- 100
2019-09-19 07:00:00 12.3 0 Calma 5 Este 0 -- -- 100
2019-09-19 06:00:00 12.5 2 Nordeste 6 Este 0 -- -- 100
2019-09-19 05:00:00 12.7 2 Este 5 Este 0 -- -- 100
2019-09-19 04:00:00 13.2 2 Nordeste 5 Nordeste 0 -- -- 100
2019-09-19 03:00:00 13.4 0 Calma 6 Este 0 -- -- 99
2019-09-19 02:00:00 14 0 Calma 5 Este 0 -- -- 99
2019-09-19 01:00:00 14.6 3 Sudoeste 6 Oeste 0 -- -- 99
2019-09-19 00:00:00 15.3 3 Sudeste 6 Este 0 -- -- 99
2019-09-18 23:00:00 15.5 2 Nordeste 5 Oeste 0 -- -- 99
2019-09-18 22:00:00 15.6 2 Este 8 Noroeste 0 -- -- 97
2019-09-18 21:00:00 16.5 2 Sur 12 Oeste 0 -- -- 96
2019-09-18 20:00:00 17.5 8 Noroeste 22 Noroeste 0.4 -- -- 95
2019-09-18 19:00:00 17.6 0 Calma 10 Norte 0 -- -- 96
2019-09-18 18:00:00 17.8 2 Sur 20 Norte 0.4 -- -- 94
2019-09-18 17:00:00 18.3 3 Este 23 Noroeste 5.6 -- -- 93
2019-09-18 16:00:00 22.6 13 Noroeste 27 Noroeste 0.8 -- -- 73
2019-09-18 15:00:00 30 4 Sur 11 Sudoeste 0 -- -- 44
2019-09-18 14:00:00 28.8 3 Noroeste 10 Este 0 -- -- 48
2019-09-18 13:00:00 27.5 3 Sudoeste 12 Este 0 -- -- 51
2019-09-18 12:00:00 25 3 Sudeste 9 Este 0 -- -- 62
2019-09-18 11:00:00 21.9 0 Calma 3 Noroeste 0 -- -- 77
2019-09-18 10:00:00 17.8 0 Calma 3 Este 0 -- -- 98
2019-09-18 09:00:00 15 2 Nordeste 4 Nordeste 0 -- -- 99
2019-09-18 08:00:00 14.2 2 Nordeste 4 Nordeste 0 -- -- 98
2019-09-18 07:00:00 14.6 0 Calma 4 Este 0 -- -- 97
2019-09-18 06:00:00 15.2 3 Nordeste 5 Nordeste 0 -- -- 97
2019-09-18 05:00:00 15.6 2 Nordeste 3 Nordeste 0 -- -- 97
2019-09-18 04:00:00 15.3 0 Calma 3 Este 0 -- -- 97
2019-09-18 03:00:00 15.3 2 Nordeste 4 Este 0 -- -- 96
2019-09-18 02:00:00 15.8 2 Nordeste 3 Nordeste 0 -- -- 95
2019-09-18 01:00:00 16.2 0 Calma 4 Nordeste 0 -- -- 94
2019-09-18 00:00:00 16.6 2 Este 5 Este 0 -- -- 93
2019-09-17 23:00:00 16.6 3 Nordeste 4 Este 0 -- -- 91
2019-09-17 22:00:00 17.7 2 Este 4 Este 0 -- -- 88
2019-09-17 21:00:00 19.4 2 Nordeste 3 Este 0 -- -- 83
2019-09-15 18:00:00 28.1 2 Este 8 Sudeste 0 -- -- 48
2019-09-15 17:00:00 28.7 3 Oeste 12 Oeste 0 -- -- 39
2019-09-15 16:00:00 27.9 2 Sur 9 Oeste 0 -- -- 41
2019-09-15 15:00:00 27.2 2 Norte 11 Oeste 0 -- -- 45
2019-09-15 14:00:00 27 4 Sudoeste 13 Oeste 0 -- -- 48
2019-09-15 13:00:00 25.8 3 Sudoeste 11 Oeste 0 -- -- 46
2019-09-15 12:00:00 23.1 2 Sudoeste 6 Norte 0 -- -- 55
2019-09-15 11:00:00 20.4 0 Calma 4 Norte 0 -- -- 69
2019-09-15 10:00:00 16.3 0 Calma 3 Nordeste 0 -- -- 91
2019-09-15 09:00:00 13.5 2 Nordeste 4 Nordeste 0 -- -- 94
2019-09-15 08:00:00 13.5 3 Nordeste 5 Nordeste 0 -- -- 92
2019-09-15 07:00:00 15 0 Calma 11 Noroeste 0 -- -- 86
2019-09-15 06:00:00 17.2 4 Noroeste 13 Noroeste 0 -- -- 75
2019-09-15 05:00:00 17.8 3 Nordeste 9 Oeste 0 -- -- 71
2019-09-15 04:00:00 17.2 3 Noroeste 9 Oeste 0 -- -- 76
2019-09-15 03:00:00 15.3 2 Este 5 Nordeste 0 -- -- 89
2019-09-15 02:00:00 15 0 Calma 4 Este 0 -- -- 89
2019-09-15 01:00:00 15.1 0 Calma 4 Este 0 -- -- 90
2019-09-15 00:00:00 15.8 2 Nordeste 4 Nordeste 0 -- -- 90
2019-09-14 23:00:00 15.9 0 Calma 3 Nordeste 0 -- -- 88
2019-09-14 22:00:00 16.6 0 Calma 8 Oeste 0 -- -- 87
2019-09-14 21:00:00 18 0 Calma 4 Este 0 -- -- 82
2019-09-14 20:00:00 20.8 0 Calma 2 Sudeste 0 -- -- 73
2019-09-14 19:00:00 24.2 0 Calma 6 Sudeste 0 -- -- 58
2019-09-14 18:00:00 25.3 0 Calma 11 Este 0 -- -- 55
2019-09-14 17:00:00 26.6 0 Calma 12 Este 0 -- -- 50
2019-09-14 16:00:00 27.4 2 Sudeste 10 Sudeste 0 -- -- 48
2019-09-14 15:00:00 28.1 4 Sudeste 14 Sudeste 0 -- -- 37
2019-09-14 14:00:00 27.7 4 Este 9 Sudeste 0 -- -- 34
2019-09-14 13:00:00 26.8 4 Oeste 9 Oeste 0.2 -- -- 44
2019-09-14 12:00:00 25.1 3 Oeste 13 Este 0 -- -- 57
2019-09-14 11:00:00 22 3 Norte 11 Noroeste 0 -- -- 60
2019-09-14 10:00:00 17.1 0 Calma 4 Este 0 -- -- 98
2019-09-14 09:00:00 15 0 Calma 6 Este 0 -- -- 97
2019-09-14 08:00:00 14.7 2 Norte 6 Este 0 -- -- 98
2019-09-14 07:00:00 14.9 2 Sur 5 Sudoeste 0 -- -- 98
2019-09-14 06:00:00 15.1 3 Este 8 Oeste 0 -- -- 99
2019-09-14 05:00:00 15.1 3 Nordeste 5 Nordeste 0 -- -- 99
2019-09-14 04:00:00 15 0 Calma 4 Este 0.2 -- -- 99
2019-09-14 03:00:00 14.8 2 Nordeste 5 Este 0 -- -- 98
2019-09-14 02:00:00 14.6 0 Calma 6 Este 0 -- -- 96
2019-09-14 01:00:00 15.3 2 Este 5 Nordeste 0.2 -- -- 92
2019-09-14 00:00:00 15.2 0 Calma 4 Nordeste 0 -- -- 91
2019-09-13 23:00:00 16 2 Este 5 Este 0 -- -- 89
2019-09-13 22:00:00 16.9 2 Nordeste 5 Nordeste 0 -- -- 89
2019-09-13 21:00:00 17.8 2 Sudeste 7 Este 0 -- -- 85
2019-09-13 20:00:00 20.6 0 Calma 5 Sudoeste 0 -- -- 79
2019-09-13 19:00:00 23.9 2 Sudoeste 6 Sudoeste 0 -- -- 67
2019-09-13 18:00:00 23.6 0 Calma 3 Sudeste 0 -- -- 69
2019-09-13 17:00:00 24.4 0 Calma 7 Este 0 -- -- 64
2019-09-13 16:00:00 23.6 0 Calma 4 Noroeste 0 -- -- 67
2019-09-13 15:00:00 25.7 0 Calma 7 Sudeste 0 -- -- 53
2019-09-13 14:00:00 25.9 3 Sudeste 10 Este 0 -- -- 47
2019-09-13 13:00:00 23.3 0 Calma 9 Oeste 0 -- -- 66
2019-09-13 12:00:00 20.4 0 Calma 3 Este 0 -- -- 85
2019-09-13 11:00:00 18.3 0 Calma 5 Este 0 -- -- 90
2019-09-13 10:00:00 14.6 0 Calma 7 Este 0 -- -- 97
2019-09-13 09:00:00 11.2 2 Este 6 Nordeste 0 -- -- 99
2019-09-13 08:00:00 9.8 2 Este 7 Nordeste 0 -- -- 98
2019-09-13 07:00:00 9.8 3 Nordeste 7 Este 0 -- -- 97
2019-09-13 06:00:00 10.1 3 Nordeste 5 Nordeste 0 -- -- 97
2019-09-13 05:00:00 10.3 2 Este 5 Nordeste 0 -- -- 97
2019-09-13 04:00:00 10.6 2 Nordeste 6 Este 0 -- -- 96
2019-09-13 03:00:00 10.9 3 Nordeste 6 Este 0 -- -- 95
2019-09-13 02:00:00 11.3 3 Nordeste 5 Este 0 -- -- 95
2019-09-13 01:00:00 11.6 2 Este 6 Este 0 -- -- 94
2019-09-13 00:00:00 12.3 2 Este 5 Nordeste 0 -- -- 92
2019-09-12 23:00:00 13.4 3 Nordeste 4 Este 0 -- -- 89
2019-09-12 22:00:00 14.8 2 Nordeste 4 Este 0 -- -- 85
2019-09-12 21:00:00 16.6 2 Nordeste 4 Nordeste 0 -- -- 79
2019-09-12 20:00:00 20.2 0 Calma 9 Este 0 -- -- 68
2019-09-12 19:00:00 25.5 2 Sudeste 13 Sur 0 -- -- 48
2019-09-12 18:00:00 27.9 4 Sudeste 16 Sudeste 0 -- -- 33
2019-09-12 17:00:00 28.6 5 Este 16 Sudeste 0 -- -- 35
2019-09-12 16:00:00 28.7 4 Este 15 Este 0 -- -- 32
2019-09-12 15:00:00 28.7 3 Oeste 14 Oeste 0 -- -- 33
2019-09-12 14:00:00 27.6 4 Oeste 11 Noroeste 0 -- -- 37
2019-09-12 13:00:00 26.1 2 Sudoeste 8 Oeste 0 -- -- 46
2019-09-12 12:00:00 22 2 Este 9 Oeste 0 -- -- 63
2019-09-12 11:00:00 17.8 2 Sudeste 5 Sudoeste 0 -- -- 100
2019-09-12 10:00:00 14.1 2 Este 4 Este 0 -- -- 100
2019-09-12 09:00:00 11 3 Este 4 Nordeste 0 -- -- 100
2019-09-12 08:00:00 9.7 3 Nordeste 5 Este 0 -- -- 100
2019-09-12 07:00:00 9.7 3 Este 4 Este 0 -- -- 100
2019-09-12 06:00:00 9.8 0 Calma 4 Este 0 -- -- 100
2019-09-12 05:00:00 10.1 2 Este 5 Este 0 -- -- 100
2019-09-12 04:00:00 10.6 2 Nordeste 4 Nordeste 0 -- -- 100
2019-09-12 03:00:00 10.9 0 Calma 4 Este 0 -- -- 99
2019-09-12 02:00:00 11.4 0 Calma 5 Nordeste 0 -- -- 99
2019-09-12 01:00:00 12 3 Nordeste 5 Nordeste 0 -- -- 99
2019-09-12 00:00:00 12.4 0 Calma 4 Este 0 -- -- 98
2019-09-11 23:00:00 13.2 0 Calma 4 Este 0 -- -- 97
2019-09-11 22:00:00 14.3 0 Calma 5 Este 0 -- -- 95
2019-09-11 21:00:00 15.8 2 Nordeste 3 Este 0 -- -- 92
2019-09-11 20:00:00 18.2 0 Calma 4 Sudoeste 0 -- -- 84
2019-09-11 19:00:00 21.3 2 Sur 7 Nordeste 0 -- -- 76
2019-09-11 18:00:00 23.5 4 Nordeste 15 Sudeste 0 -- -- 53
2019-09-11 17:00:00 23.1 3 Sudeste 10 Oeste 0 -- -- 67
2019-09-11 16:00:00 21.9 5 Noroeste 10 Noroeste 0 -- -- 65
2019-09-11 15:00:00 17.4 2 Este 5 Sudeste 0 -- -- 99
2019-09-11 14:00:00 16.2 3 Sudoeste 6 Sudoeste 0 -- -- 99
2019-09-11 13:00:00 15.8 2 Este 9 Norte 0 -- -- 98
2019-09-11 12:00:00 15.6 4 Noroeste 14 Oeste 0.4 -- -- 95
2019-09-11 11:00:00 15.1 2 Sudeste 12 Oeste 0 -- -- 98
2019-09-11 10:00:00 14.7 3 Norte 11 Noroeste 3.6 -- -- 98
2019-09-11 09:00:00 14.3 0 Calma 13 Noroeste 1.4 -- -- 97
2019-09-11 08:00:00 14.3 3 Norte 15 Oeste 1.6 -- -- 96
2019-09-11 07:00:00 14.3 3 Sudoeste 13 Noroeste 2 -- -- 96
2019-09-11 06:00:00 14.7 3 Norte 13 Noroeste 0.4 -- -- 91
2019-09-11 05:00:00 15 5 Noroeste 19 Noroeste 0 -- -- 83
2019-09-11 04:00:00 13.8 6 Noroeste 12 Noroeste 0.2 -- -- 93
2019-09-11 03:00:00 14 0 Calma 17 Norte 0 -- -- 92
2019-09-11 02:00:00 14.6 5 Norte 17 Oeste 0 -- -- 82
2019-09-11 01:00:00 13.8 5 Noroeste 14 Noroeste 0 -- -- 89
2019-09-11 00:00:00 13.5 3 Sudoeste 26 Este 0 -- -- 93
2019-09-10 23:00:00 12.7 3 Sur 15 Noroeste 1.8 -- -- 96
2019-09-10 22:00:00 12.5 5 Oeste 13 Norte 3.2 -- -- 98
2019-09-10 21:00:00 12.7 0 Calma 7 Sudoeste 0.2 -- -- 97
2019-09-10 20:00:00 13 3 Norte 9 Oeste 0.4 -- -- 94
2019-09-10 19:00:00 13.6 0 Calma 6 Nordeste 0 -- -- 91
2019-09-10 18:00:00 14.1 3 Noroeste 10 Oeste 0 -- -- 85
2019-09-10 17:00:00 14 3 Nordeste 7 Norte 0.4 -- -- 91
2019-09-10 16:00:00 14.8 3 Norte 16 Noroeste 0 -- -- 78
2019-09-10 15:00:00 15.6 3 Nordeste 14 Noroeste 0 -- -- 78
2019-09-10 14:00:00 15.9 3 Norte 12 Noroeste 0.2 -- -- 85
2019-09-10 13:00:00 14.3 0 Calma 4 Este 1 -- -- 96
2019-09-10 12:00:00 14.5 2 Sudeste 17 Noroeste 0 -- -- 89
2019-09-10 11:00:00 15.1 5 Noroeste 16 Noroeste 0 -- -- 87
2019-09-10 10:00:00 13.5 0 Calma 4 Sur 1.4 -- -- 99
2019-09-10 09:00:00 13.3 2 Este 14 Noroeste 6 -- -- 99
2019-09-10 08:00:00 13.7 6 Noroeste 19 Noroeste 0.8 -- -- 99
2019-09-10 07:00:00 13.8 4 Sudoeste 8 Sudoeste 1.2 -- -- 98
2019-09-10 06:00:00 13.9 0 Calma 6 Noroeste 2.8 -- -- 98
2019-09-10 05:00:00 14.4 4 Sudoeste 9 Oeste 0.2 -- -- 95
2019-09-10 04:00:00 15.8 0 Calma 8 Este 0.8 -- -- 97
2019-09-10 03:00:00 16.1 0 Calma 5 Oeste 0.2 -- -- 96
2019-09-10 02:00:00 15.8 0 Calma 5 Este 0 -- -- 95
2019-09-10 01:00:00 15.7 0 Calma 4 Nordeste 0 -- -- 94
2019-09-10 00:00:00 16.3 2 Este 4 Este 0 -- -- 91
2019-09-09 23:00:00 17.5 0 Calma 2 Nordeste 0 -- -- 87
2019-09-09 22:00:00 18.1 0 Calma 3 Sudeste 0 -- -- 86
2019-09-09 21:00:00 18.6 0 Calma 4 Sudeste 0 -- -- 81
2019-09-09 20:00:00 19.3 0 Calma 12 Este 0 -- -- 75
2019-09-09 19:00:00 20.8 3 Sudeste 11 Nordeste 0 -- -- 67
2019-09-09 18:00:00 23.1 3 Sudeste 13 Oeste 0 -- -- 66
2019-09-09 17:00:00 24.1 4 Oeste 12 Este 0 -- -- 60
2019-09-09 16:00:00 23.7 4 Sudoeste 18 Sudeste 0 -- -- 60
2019-09-09 15:00:00 23.6 5 Sudeste 22 Sudeste 0 -- -- 57
2019-09-09 14:00:00 22.6 5 Sudeste 15 Nordeste 0 -- -- 61
2019-09-09 13:00:00 21.4 4 Este 17 Este 0 -- -- 56
2019-09-09 12:00:00 19.2 4 Sur 10 Oeste 0 -- -- 63
2019-09-09 11:00:00 17.6 2 Oeste 7 Oeste 0 -- -- 73
2019-09-09 10:00:00 15.3 0 Calma 3 Este 0 -- -- 98
2019-09-09 09:00:00 13.6 0 Calma 2 Sudeste 0 -- -- 99
2019-09-09 08:00:00 12.8 0 Calma 3 Este 0 -- -- 99
2019-09-09 07:00:00 13 2 Este 4 Nordeste 0 -- -- 99
2019-09-09 06:00:00 13.7 0 Calma 3 Nordeste 0 -- -- 98
2019-09-09 05:00:00 14.6 0 Calma 3 Nordeste 0 -- -- 99
2019-09-09 04:00:00 15.5 0 Calma 2 Este 0 -- -- 100
2019-09-09 03:00:00 15.5 0 Calma 3 Este 0 -- -- 99
2019-09-09 02:00:00 15.5 0 Calma 2 Este 0 -- -- 99
2019-09-09 01:00:00 15.6 0 Calma 2 Nordeste 0 -- -- 99
2019-09-09 00:00:00 15.7 0 Calma 4 Este 0 -- -- 99
2019-09-08 23:00:00 15.9 3 Oeste 4 Sudoeste 0.2 -- -- 98
2019-09-08 22:00:00 16.1 2 Nordeste 5 Oeste 0.2 -- -- 97
2019-09-08 21:00:00 16.5 2 Sudeste 6 Noroeste 0.8 -- -- 96
2019-09-08 20:00:00 16.7 0 Calma 2 Sudeste 0 -- -- 93
2019-09-08 19:00:00 17.4 2 Sudoeste 9 Sudeste 0.2 -- -- 86
2019-09-08 18:00:00 19.1 2 Nordeste 15 Sudeste 0 -- -- 76
2019-09-08 17:00:00 20.6 3 Nordeste 10 Este 0 -- -- 72
2019-09-08 16:00:00 21.2 4 Noroeste 14 Sur 0 -- -- 69
2019-09-08 15:00:00 22.2 5 Sudeste 16 Este 0 -- -- 62
2019-09-08 14:00:00 22.6 4 Nordeste 13 Sudeste 0 -- -- 60
2019-09-08 13:00:00 22.2 5 Sudeste 13 Sudeste 0 -- -- 60
2019-09-08 12:00:00 20.6 2 Este 13 Este 0 -- -- 69
2019-09-08 11:00:00 17.6 0 Calma 4 Nordeste 0 -- -- 96
2019-09-08 10:00:00 14.9 0 Calma 3 Este 0 -- -- 100
2019-09-08 09:00:00 12.5 0 Calma 4 Este 0 -- -- 100
2019-09-08 08:00:00 11.4 0 Calma 4 Este 0 -- -- 100
2019-09-08 07:00:00 11.6 2 Nordeste -- -- 0 -- -- 99
2019-09-08 06:00:00 11.8 3 Este 5 Este 0 -- -- 99
2019-09-08 05:00:00 12.7 3 Este 4 Este 0 -- -- 98
2019-09-08 04:00:00 13.6 2 Este 3 Este 0 -- -- 98
2019-09-08 03:00:00 14.3 2 Este 4 Este 0 -- -- 97
2019-09-08 02:00:00 15.1 0 Calma 4 Este 0 -- -- 96
2019-09-08 01:00:00 16.2 0 Calma 9 Noroeste 0.8 -- -- 95
2019-09-08 00:00:00 16.9 2 Sudeste 5 Nordeste 0.6 -- -- 96
2019-09-07 23:00:00 17 0 Calma 3 Nordeste 0 -- -- 92
2019-09-07 22:00:00 17 0 Calma 4 Nordeste 0 -- -- 89
2019-09-07 21:00:00 18.4 0 Calma 3 Nordeste 0 -- -- 83
2019-09-07 20:00:00 20.3 0 Calma 9 Sudeste 0 -- -- 76
2019-09-07 19:00:00 21.4 2 Este 9 Este 0 -- -- 69
2019-09-07 18:00:00 23.4 3 Este 14 Oeste 0 -- -- 59
2019-09-07 17:00:00 25.5 5 Sudoeste 12 Sur 0 -- -- 50
2019-09-07 16:00:00 25.5 4 Este 11 Sudeste 0 -- -- 41
2019-09-07 15:00:00 24.9 4 Este 13 Sudeste 0 -- -- 41
2019-09-07 14:00:00 24.9 4 Sur 9 Oeste 0 -- -- 35
2019-09-07 13:00:00 23.6 3 Sudeste 10 Sudeste 0 -- -- 43
2019-09-07 12:00:00 21.2 2 Oeste 10 Sudeste 0 -- -- 55
2019-09-07 11:00:00 17.6 0 Calma 4 Nordeste 0 -- -- 81
2019-09-07 10:00:00 13.8 2 Nordeste 3 Sudeste 0 -- -- 100
2019-09-07 09:00:00 10.1 0 Calma 4 Este 0 -- -- 100
2019-09-07 08:00:00 8.8 2 Este 4 Nordeste 0 -- -- 99
2019-09-07 07:00:00 8.9 2 Nordeste 4 Este 0 -- -- 99
2019-09-07 06:00:00 9.5 3 Nordeste 5 Nordeste 0 -- -- 98
2019-09-07 05:00:00 10.2 2 Nordeste 5 Este 0 -- -- 98
2019-09-07 04:00:00 10.8 2 Este 4 Este 0 -- -- 97
2019-09-07 03:00:00 11.6 0 Calma 5 Nordeste 0 -- -- 97
2019-09-07 02:00:00 12.4 2 Nordeste 3 Este 0 -- -- 97
2019-09-07 01:00:00 13.1 2 Este 3 Este 0 -- -- 96
2019-09-07 00:00:00 13.9 0 Calma 4 Nordeste 0 -- -- 95
2019-09-06 23:00:00 14.5 0 Calma 3 Nordeste 0 -- -- 93
2019-09-06 22:00:00 15.3 0 Calma 3 Este 0 -- -- 91
2019-09-06 21:00:00 16.9 2 Este 4 Nordeste 0 -- -- 84
2019-09-06 20:00:00 19.6 3 Nordeste 8 Sudoeste 0 -- -- 75
2019-09-06 19:00:00 22.9 3 Oeste 10 Este 0 -- -- 57
2019-09-06 18:00:00 24.6 3 Noroeste 12 Oeste 0 -- -- 50
2019-09-06 17:00:00 24.8 4 Sur 12 Este 0 -- -- 46
2019-09-06 16:00:00 25 3 Norte 14 Este 0 -- -- 42
2019-09-06 15:00:00 24.3 4 Sudeste 12 Sudeste 0 -- -- 45
2019-09-06 14:00:00 22.8 5 Oeste 13 Oeste 0 -- -- 43
2019-09-06 13:00:00 21.2 4 Oeste 13 Oeste 0 -- -- 52
2019-09-06 12:00:00 18.3 4 Sudeste 9 Sudeste 0 -- -- 64
2019-09-06 11:00:00 14.9 0 Calma 4 Nordeste 0 -- -- 100
2019-09-06 10:00:00 12.1 0 Calma 4 Este 0 -- -- 100
2019-09-06 09:00:00 9.2 2 Este 4 Este 0 -- -- 100
2019-09-06 08:00:00 8.1 2 Este 7 Este 0 -- -- 100
2019-09-06 07:00:00 8.6 3 Nordeste 6 Nordeste 0 -- -- 100
2019-09-06 06:00:00 9.4 3 Nordeste 5 Este 0 -- -- 100
2019-09-06 05:00:00 10.1 2 Este 5 Este 0 -- -- 99
2019-09-06 04:00:00 11.1 0 Calma 6 Este 0 -- -- 99
2019-09-06 03:00:00 12 2 Este 4 Este 0 -- -- 99
2019-09-06 02:00:00 12.5 2 Este 5 Este 0.2 -- -- 99
2019-09-06 01:00:00 13 0 Calma 6 Este 0 -- -- 99
2019-09-06 00:00:00 13.5 0 Calma 4 Este 0 -- -- 98
2019-09-05 23:00:00 14.2 0 Calma 6 Oeste 0 -- -- 98
2019-09-05 22:00:00 15.3 0 Calma 5 Norte 0 -- -- 98
2019-09-05 21:00:00 15.8 0 Calma 4 Oeste 0 -- -- 98
2019-09-05 20:00:00 16.6 2 Este 5 Norte 0 -- -- 97
2019-09-05 19:00:00 17.1 0 Calma 6 Oeste 0.4 -- -- 97
2019-09-05 18:00:00 17.4 2 Sur 7 Noroeste 0 -- -- 95
2019-09-05 17:00:00 17.5 2 Este 7 Este 8.6 -- -- 92
2019-09-05 16:00:00 21.1 3 Este 10 Nordeste 2.4 -- -- 83
2019-09-05 15:00:00 23.5 5 Oeste 13 Oeste 0 -- -- 63
2019-09-05 14:00:00 23.8 3 Este 15 Sudeste 0 -- -- 60
2019-09-05 13:00:00 23.9 3 Sudoeste 9 Oeste 0 -- -- 61
2019-09-05 12:00:00 23.3 3 Sur 8 Este 0 -- -- 69
2019-09-05 11:00:00 19.8 0 Calma 3 Este 0 -- -- 84
2019-09-05 10:00:00 17.6 0 Calma 4 Nordeste 0 -- -- 97
2019-09-05 09:00:00 14.6 0 Calma 4 Nordeste 0 -- -- 100
2019-09-05 08:00:00 12.4 2 Nordeste 4 Este 0 -- -- 99
2019-09-05 07:00:00 12.3 2 Este 4 Nordeste 0 -- -- 98
2019-09-05 06:00:00 12.6 2 Este 4 Este 0 -- -- 98
2019-09-05 05:00:00 13.1 2 Este 3 Nordeste 0 -- -- 98
2019-09-05 04:00:00 13.5 0 Calma 4 Nordeste 0 -- -- 97
2019-09-05 03:00:00 14.3 3 Nordeste 4 Este 0 -- -- 97
2019-09-05 02:00:00 14.6 0 Calma 4 Nordeste 0 -- -- 96
2019-09-05 01:00:00 15.1 2 Nordeste 3 Nordeste 0 -- -- 95
2019-09-05 00:00:00 15.8 2 Este 4 Nordeste 0 -- -- 94
2019-09-04 23:00:00 16.7 0 Calma 3 Nordeste 0 -- -- 91
2019-09-04 22:00:00 18.1 0 Calma 4 Nordeste 0 -- -- 88
2019-09-04 21:00:00 20 0 Calma 2 Este 0 -- -- 80
2019-09-04 20:00:00 23.1 0 Calma 8 Este 0 -- -- 70
2019-09-04 19:00:00 26.8 3 Noroeste 11 Oeste 0 -- -- 55
2019-09-04 18:00:00 28.4 3 Norte 13 Sudeste 0 -- -- 48
2019-09-04 17:00:00 29.2 3 Sur 12 Noroeste 0 -- -- 43
2019-09-04 16:00:00 29.3 5 Sudeste 14 Sudeste 0 -- -- 41
2019-09-04 15:00:00 29.5 4 Sudoeste 13 Sudeste 0 -- -- 41
2019-09-04 14:00:00 28.7 3 Oeste 12 Oeste 0 -- -- 46
2019-09-04 13:00:00 27.1 3 Sudoeste 12 Sudoeste 0 -- -- 48
2019-09-04 12:00:00 24.6 2 Sudoeste 11 Oeste 0 -- -- 56
2019-09-04 11:00:00 21.9 3 Oeste 11 Sudoeste 0 -- -- 60
2019-09-04 10:00:00 16.6 0 Calma 4 Este 0 -- -- 100
2019-09-04 09:00:00 13.5 2 Nordeste 3 Este 0 -- -- 100
2019-09-04 08:00:00 11.5 0 Calma 3 Este 0 -- -- 100
2019-09-04 07:00:00 11.3 3 Nordeste 4 Nordeste 0 -- -- 99
2019-09-04 06:00:00 11.2 0 Calma 3 Este 0 -- -- 98
2019-09-04 05:00:00 11.7 0 Calma 4 Este 0 -- -- 98
2019-09-04 04:00:00 12.1 0 Calma 4 Nordeste 0 -- -- 97
2019-09-04 03:00:00 12.6 2 Nordeste 4 Nordeste 0 -- -- 97
2019-09-04 02:00:00 13.1 2 Este 5 Este 0 -- -- 97
2019-09-04 01:00:00 13.6 3 Este 5 Este 0 -- -- 96
2019-09-04 00:00:00 14.3 3 Este 5 Este 0 -- -- 95
2019-09-03 23:00:00 15.2 2 Este 3 Este 0 -- -- 92
2019-09-03 22:00:00 16.7 2 Este 3 Este 0 -- -- 88
2019-09-03 21:00:00 18.9 0 Calma 3 Este 0 -- -- 80
2019-09-03 20:00:00 22.1 0 Calma 10 Sudeste 0 -- -- 69
2019-09-03 19:00:00 25.8 3 Noroeste 10 Noroeste 0 -- -- 54
2019-09-03 18:00:00 27.8 3 Sur 9 Oeste 0 -- -- 50
2019-09-03 17:00:00 28.6 3 Nordeste 16 Oeste 0 -- -- 46
2019-09-03 16:00:00 29.1 4 Sudoeste 14 Sudoeste 0 -- -- 37
2019-09-03 15:00:00 28.7 4 Sudoeste 13 Este 0 -- -- 40
2019-09-03 14:00:00 27.5 4 Oeste 9 Sudeste 0 -- -- 42
2019-09-03 13:00:00 26.2 3 Sudoeste 10 Sudoeste 0 -- -- 46
2019-09-03 12:00:00 23.7 2 Oeste 10 Sudoeste 0 -- -- 51
2019-09-03 11:00:00 20.7 2 Norte 5 Este 0 -- -- 81
2019-09-03 10:00:00 16.5 0 Calma 3 Nordeste 0 -- -- 100
2019-09-03 09:00:00 13.5 0 Calma 4 Nordeste 0 -- -- 100
2019-09-03 08:00:00 12.1 0 Calma 4 Este 0 -- -- 99
2019-09-03 07:00:00 12.6 3 Nordeste 6 Este 0 -- -- 99
2019-09-03 06:00:00 13.2 2 Este 5 Este 0 -- -- 98
2019-09-03 05:00:00 13.7 0 Calma 5 Nordeste 0 -- -- 98
2019-09-03 04:00:00 14.6 2 Nordeste 4 Este 0 -- -- 97
2019-09-03 03:00:00 15.4 0 Calma 6 Este 0 -- -- 97
2019-09-03 02:00:00 16 0 Calma 4 Este 0 -- -- 95
2019-09-03 01:00:00 17 2 Nordeste 3 Este 0 -- -- 95
2019-09-03 00:00:00 17 0 Calma 3 Nordeste 0 -- -- 94
2019-09-02 23:00:00 17.9 0 Calma 2 Nordeste 0 -- -- 91
2019-09-02 22:00:00 18.6 0 Calma 2 Este 0 -- -- 88
2019-09-02 21:00:00 19.5 0 Calma 3 Este 0 -- -- 83
2019-09-02 20:00:00 21.1 0 Calma 4 Oeste 0 -- -- 78
2019-09-02 19:00:00 23.3 0 Calma 5 Oeste 0 -- -- 65
2019-09-02 18:00:00 22.9 0 Calma 9 Este 0 -- -- 66
2019-09-02 17:00:00 22.8 2 Este 8 Sudoeste 0 -- -- 68
2019-09-02 16:00:00 23.4 3 Este 10 Noroeste 0 -- -- 64
2019-09-02 15:00:00 22.5 3 Sudeste 10 Oeste 0 -- -- 77
2019-09-02 14:00:00 24 4 Sudeste 15 Oeste 0 -- -- 70
2019-09-02 13:00:00 22.3 0 Calma 9 Norte 0 -- -- 78
2019-09-02 12:00:00 22 3 Noroeste 6 Oeste 0 -- -- 82
2019-09-02 11:00:00 19.6 2 Este 6 Este 0 -- -- 98
2019-09-02 10:00:00 18.6 0 Calma 4 Oeste 0 -- -- 100
2019-09-02 09:00:00 18.1 0 Calma 4 Oeste 0 -- -- 100
2019-09-02 08:00:00 17.6 0 Calma 5 Noroeste 0 -- -- 100
2019-09-02 07:00:00 17.4 0 Calma 5 Este 0 -- -- 100
2019-09-02 06:00:00 17.4 0 Calma 5 Sudoeste 0 -- -- 100
2019-09-02 05:00:00 17.1 2 Sudoeste 5 Norte 0 -- -- 100
2019-09-02 04:00:00 17.3 0 Calma 5 Este 0 -- -- 100
2019-09-02 03:00:00 17.2 0 Calma 4 Nordeste 0 -- -- 100
2019-09-02 02:00:00 17.2 2 Este 8 Noroeste 0 -- -- 100
2019-09-02 01:00:00 17.1 0 Calma 6 Este 0 -- -- 99
2019-09-02 00:00:00 17.6 0 Calma 4 Este 0 -- -- 99
2019-09-01 23:00:00 17.6 0 Calma 9 Este 0.2 -- -- 98
2019-09-01 22:00:00 17.8 0 Calma 7 Sudoeste 0 -- -- 98
2019-09-01 21:00:00 17.8 2 Este 13 Norte 3 -- -- 96
2019-09-01 20:00:00 18.5 6 Noroeste 39 Norte 11.6 -- -- 93
2019-09-01 19:00:00 25.3 2 Este 10 Este 0 -- -- 69
2019-09-01 18:00:00 27.5 4 Noroeste 15 Oeste 0 -- -- 61
2019-09-01 17:00:00 28.2 4 Oeste 14 Oeste 0 -- -- 59
2019-09-01 16:00:00 30.4 5 Sudeste 17 Sudeste 0 -- -- 50
2019-09-01 15:00:00 29 3 Sudoeste 12 Este 0 -- -- 54
2019-09-01 14:00:00 25.9 0 Calma 8 Oeste 0 -- -- 60
2019-09-01 13:00:00 28.2 3 Sudoeste 17 Oeste 0 -- -- 48
2019-09-01 12:00:00 27.9 2 Sur 12 Oeste 0 -- -- 51
2019-09-01 11:00:00 24.3 0 Calma 7 Oeste 0 -- -- 63
2019-09-01 10:00:00 19.8 0 Calma 3 Nordeste 0 -- -- 91
2019-09-01 09:00:00 16.4 0 Calma 4 Este 0 -- -- 97
2019-09-01 08:00:00 14.6 0 Calma 4 Nordeste 0 -- -- 97
2019-09-01 07:00:00 14.7 0 Calma 3 Este 0 -- -- 96
2019-09-01 06:00:00 15.1 2 Este 3 Nordeste 0 -- -- 94
2019-09-01 05:00:00 15.6 2 Nordeste 4 Nordeste 0 -- -- 94
2019-09-01 04:00:00 14.9 2 Nordeste 3 Nordeste 0 -- -- 94
2019-09-01 03:00:00 14.9 0 Calma 3 Nordeste 0 -- -- 92
2019-09-01 02:00:00 15.3 2 Este 5 Este 0 -- -- 90
2019-09-01 01:00:00 15.7 2 Nordeste 5 Este 0 -- -- 90
2019-09-01 00:00:00 16.4 2 Este 4 Este 0 -- -- 88
2019-08-31 23:00:00 17.9 2 Nordeste 4 Nordeste 0 -- -- 86
2019-08-31 22:00:00 19.3 0 Calma 3 Nordeste 0 -- -- 82
2019-08-31 21:00:00 21.8 0 Calma 7 Norte 0 -- -- 71
2019-08-31 20:00:00 25.4 3 Nordeste 22 Noroeste 0 -- -- 56
2019-08-31 19:00:00 25.4 0 Calma 13 Noroeste 0 -- -- 70
2019-08-31 18:00:00 27.2 0 Calma 6 Sudoeste 0 -- -- 63
2019-08-31 17:00:00 23.9 2 Nordeste 23 Oeste 0.2 -- -- 76
2019-08-31 16:00:00 30.9 3 Oeste 20 Sudoeste 0 -- -- 43
2019-08-31 15:00:00 33.2 5 Oeste 17 Oeste 0 -- -- 35
2019-08-31 14:00:00 32.6 6 Oeste 17 Oeste 0 -- -- 40
2019-08-31 13:00:00 31.1 3 Sudoeste 12 Noroeste 0 -- -- 42
2019-08-31 12:00:00 27.7 2 Sudoeste 10 Oeste 0 -- -- 56
2019-08-31 11:00:00 23.2 0 Calma 2 Nordeste 0 -- -- 82
2019-08-31 10:00:00 18.9 0 Calma 3 Nordeste 0 -- -- 100
2019-08-31 09:00:00 16.4 2 Este 4 Nordeste 0 -- -- 100
2019-08-31 08:00:00 15.1 2 Nordeste 4 Nordeste 0 -- -- 100
2019-08-31 07:00:00 15.1 2 Nordeste 6 Este 0 -- -- 100
2019-08-31 06:00:00 15.4 2 Nordeste 4 Nordeste 0 -- -- 99
2019-08-31 05:00:00 15.9 3 Nordeste 9 Norte 0 -- -- 99
2019-08-31 04:00:00 16.3 3 Nordeste 6 Este 0 -- -- 99
2019-08-31 03:00:00 16.7 3 Este 4 Nordeste 0 -- -- 99
2019-08-31 02:00:00 17.2 2 Este 5 Este 0 -- -- 99
2019-08-31 01:00:00 17.7 0 Calma 5 Este 0 -- -- 98
2019-08-31 00:00:00 18.3 0 Calma 4 Este 0 -- -- 98
2019-08-30 23:00:00 19 2 Este 6 Este 0 -- -- 97
2019-08-30 22:00:00 20 0 Calma 3 Este 0 -- -- 96
2019-08-30 21:00:00 21.2 0 Calma 4 Noroeste 0 -- -- 95
2019-08-30 20:00:00 22.6 0 Calma 4 Noroeste 0 -- -- 94
2019-08-30 19:00:00 23.3 0 Calma 4 Este 0 -- -- 94
2019-08-30 18:00:00 23 0 Calma 4 Este 0 -- -- 93
2019-08-30 17:00:00 22.7 0 Calma 7 Noroeste 1.2 -- -- 91
2019-08-30 16:00:00 26.7 3 Este 11 Sudeste 1.6 -- -- 77
2019-08-30 15:00:00 33.4 4 Sudoeste 13 Este 0 -- -- 36
2019-08-30 14:00:00 32.9 3 Sudeste 14 Sudeste 0 -- -- 38
2019-08-30 13:00:00 31.4 3 Sur 11 Nordeste 0 -- -- 42
2019-08-30 12:00:00 29.4 3 Sudoeste 10 Este 0 -- -- 48
2019-08-30 11:00:00 26.6 3 Sudeste 9 Sudeste 0 -- -- 55
2019-08-30 10:00:00 20.7 0 Calma 5 Sudeste 0 -- -- 87
2019-08-30 09:00:00 16.9 0 Calma 3 Nordeste 0 -- -- 98
2019-08-30 08:00:00 15.3 0 Calma 4 Este 0 -- -- 97
2019-08-30 07:00:00 15.3 2 Nordeste 5 Este 0 -- -- 97
2019-08-30 06:00:00 15.6 2 Nordeste 5 Este 0 -- -- 96
2019-08-30 05:00:00 16 3 Nordeste 5 Este 0 -- -- 95
2019-08-30 04:00:00 16.4 3 Nordeste 5 Nordeste 0 -- -- 95
2019-08-30 03:00:00 16.9 3 Nordeste 4 Este 0 -- -- 93
2019-08-30 02:00:00 17.6 3 Este 5 Este 0 -- -- 92
2019-08-30 01:00:00 18.4 3 Nordeste 5 Este 0 -- -- 90
2019-08-30 00:00:00 19.1 2 Este 4 Nordeste 0 -- -- 88
2019-08-29 23:00:00 19.9 0 Calma 3 Este 0 -- -- 86
2019-08-29 22:00:00 21 0 Calma 3 Este 0 -- -- 82
2019-08-29 21:00:00 22.7 0 Calma 2 Nordeste 0 -- -- 76
2019-08-29 20:00:00 24.6 0 Calma 6 Este 0 -- -- 70
2019-08-29 19:00:00 26.3 3 Este 10 Oeste 0 -- -- 61
2019-08-29 18:00:00 28.5 3 Noroeste 16 Oeste 0 -- -- 52
2019-08-29 17:00:00 31.3 6 Oeste 16 Este 0 -- -- 46
2019-08-29 16:00:00 33.4 5 Oeste 16 Noroeste 0 -- -- 40
2019-08-29 15:00:00 32.9 6 Oeste 15 Oeste 0 -- -- 39
2019-08-29 14:00:00 31.4 3 Sudoeste 14 Oeste -- -- -- 40
2019-08-29 13:00:00 30.7 4 Sudeste 14 Este 0 -- -- 43
2019-08-29 12:00:00 28.3 3 Sudoeste 8 Sudoeste 0 -- -- 49
2019-08-29 11:00:00 25.6 2 Sudoeste 7 Oeste 0 -- -- 58
2019-08-29 10:00:00 19.9 0 Calma -- -- 0 -- -- 90
2019-08-29 09:00:00 16 0 Calma -- -- 0 -- -- 99
2019-08-29 08:00:00 14 0 Calma 4 Nordeste 0 -- -- 98
2019-08-29 07:00:00 14.1 3 Nordeste 4 Nordeste 0 -- -- 97
2019-08-29 06:00:00 14.4 2 Nordeste 8 Este 0 -- -- 96
2019-08-29 05:00:00 14.8 3 Nordeste 6 Este 0 -- -- 96
2019-08-29 04:00:00 15.2 2 Nordeste 4 Este 0 -- -- 95
2019-08-29 03:00:00 15.7 3 Nordeste 4 Nordeste 0 -- -- 94
2019-08-29 02:00:00 16.4 2 Nordeste 6 Nordeste 0 -- -- 92
2019-08-29 01:00:00 17.1 0 Calma 3 Este 0 -- -- 90
2019-08-29 00:00:00 18.2 2 Nordeste 4 Nordeste 0 -- -- 87
2019-08-28 23:00:00 19.6 0 Calma 3 Este 0 -- -- 83
2019-08-28 22:00:00 20.4 0 Calma 2 Este 0 -- -- 80
2019-08-28 21:00:00 21.8 0 Calma 3 Este 0 -- -- 74
2019-08-28 20:00:00 24.1 2 Este 8 Noroeste 0 -- -- 66
2019-08-28 19:00:00 27 4 Nordeste 11 Oeste 0 -- -- 54
2019-08-28 18:00:00 29 3 Noroeste 19 Sudeste 0 -- -- 47
2019-08-28 17:00:00 30.5 3 Este 15 Este 0 -- -- 40
2019-08-28 16:00:00 30.5 3 Sudeste 14 Oeste 0 -- -- 42
2019-08-28 15:00:00 30 8 Oeste 20 Sudeste 0 -- -- 43
2019-08-28 14:00:00 28.1 3 Oeste 15 Sudeste 0 -- -- 47
2019-08-28 13:00:00 28.2 5 Este 21 Sudeste 0 -- -- 46
2019-08-28 12:00:00 26.4 5 Sudeste 17 Este 0 -- -- 52
2019-08-28 11:00:00 24.9 5 Sudeste 15 Este 0 -- -- 56
2019-08-28 10:00:00 19.6 0 Calma 2 Este 0 -- -- 99
2019-08-28 09:00:00 16.5 0 Calma 3 Nordeste 0 -- -- 100
2019-08-28 08:00:00 14.7 0 Calma 3 Nordeste 0 -- -- 99
2019-08-28 07:00:00 14.8 0 Calma 4 Este 0 -- -- 98
2019-08-28 06:00:00 15.2 2 Nordeste 4 Este 0 -- -- 98
2019-08-28 05:00:00 15.5 2 Este 3 Este 0 -- -- 98
2019-08-28 04:00:00 16.2 0 Calma 4 Este 0 -- -- 97
2019-08-28 03:00:00 16.6 2 Nordeste 4 Nordeste 0 -- -- 97
2019-08-28 02:00:00 17.1 0 Calma 3 Este 0 -- -- 96
2019-08-28 01:00:00 18.2 0 Calma 3 Este 0 -- -- 94
2019-08-28 00:00:00 18.9 0 Calma 3 Nordeste 0 -- -- 94
2019-08-27 23:00:00 19.6 2 Este 4 Nordeste 0 -- -- 92
2019-08-27 22:00:00 20.5 0 Calma 2 Este 0 -- -- 88
2019-08-27 21:00:00 21.8 0 Calma 9 Sudeste 0 -- -- 84
2019-08-27 20:00:00 23 0 Calma 5 Oeste 0 -- -- 76
2019-08-27 19:00:00 23.9 0 Calma 6 Oeste 0 -- -- 70
2019-08-27 18:00:00 24.5 2 Sudoeste 5 Sudoeste 0 -- -- 71
2019-08-27 17:00:00 23.5 5 Oeste 8 Oeste 0 -- -- 75
2019-08-27 16:00:00 22.1 0 Calma 9 Noroeste 0 -- -- 83
2019-08-27 15:00:00 22 4 Noroeste 10 Oeste 0 -- -- 81
2019-08-27 14:00:00 20.3 0 Calma 8 Oeste 0 -- -- 95
2019-08-27 13:00:00 20.1 0 Calma 4 Este 0.2 -- -- 95
2019-08-27 12:00:00 19.6 0 Calma 6 Norte 0.6 -- -- 93
2019-08-27 11:00:00 20.4 0 Calma 8 Noroeste 0 -- -- 86
2019-08-27 10:00:00 19.4 0 Calma 5 Sudeste 0 -- -- 90
2019-08-27 09:00:00 18.2 2 Sudeste 5 Nordeste 0 -- -- 89
2019-08-27 08:00:00 16.9 3 Este 4 Este 0 -- -- 92
2019-08-27 07:00:00 16.6 3 Este 5 Este 0 -- -- 93
2019-08-27 06:00:00 16.7 0 Calma 5 Este 0 -- -- 92
2019-08-27 05:00:00 17 0 Calma 5 Este 0 -- -- 92
2019-08-27 04:00:00 16.8 4 Nordeste 6 Noroeste 0 -- -- 93
2019-08-27 03:00:00 16.4 2 Nordeste 5 Este 0 -- -- 94
2019-08-27 02:00:00 16.3 2 Nordeste 5 Este 0 -- -- 92
2019-08-27 01:00:00 16.6 0 Calma 4 Este 0 -- -- 91
2019-08-27 00:00:00 17.5 2 Este 4 Nordeste 0 -- -- 88
2019-08-26 23:00:00 18.7 2 Este 5 Este 0 -- -- 84
2019-08-26 22:00:00 20.6 0 Calma 4 Este 0 -- -- 77
2019-08-26 21:00:00 22.9 0 Calma 8 Este 0 -- -- 70
2019-08-26 20:00:00 25.8 3 Noroeste 10 Oeste 0 -- -- 60
2019-08-26 19:00:00 28.4 3 Oeste 13 Este 0 -- -- 51
2019-08-26 18:00:00 28.7 3 Este 17 Este 0 -- -- 46
2019-08-26 17:00:00 30.4 4 Nordeste 13 Norte 0 -- -- 38
2019-08-26 16:00:00 31.9 4 Sur 22 Sur 0 -- -- 34
2019-08-26 15:00:00 32.8 4 Este 15 Sur 0 -- -- 29
2019-08-26 14:00:00 32.5 5 Sudeste 14 Sudeste 0 -- -- 27
2019-08-26 13:00:00 31.2 4 Sudeste 15 Este 0 -- -- 26
2019-08-26 12:00:00 29 4 Oeste 11 Sudeste 0 -- -- 34
2019-08-26 11:00:00 25.8 2 Sudeste 5 Este 0 -- -- 45
2019-08-26 10:00:00 19 0 Calma 3 Nordeste 0 -- -- 82
2019-08-26 09:00:00 14.9 0 Calma 3 Este 0 -- -- 95
2019-08-26 08:00:00 12.4 2 Nordeste 4 Nordeste 0 -- -- 97
2019-08-26 07:00:00 12.2 0 Calma 3 Este 0 -- -- 96
2019-08-26 06:00:00 13.1 0 Calma 5 Nordeste 0 -- -- 96
2019-08-26 05:00:00 13.7 3 Nordeste 5 Este 0 -- -- 95
2019-08-26 04:00:00 14.2 3 Nordeste 4 Nordeste 0 -- -- 94
2019-08-26 03:00:00 14.7 3 Este 5 Nordeste 0 -- -- 93
2019-08-26 02:00:00 15.6 4 Este 5 Este 0 -- -- 91
2019-08-26 01:00:00 16.7 3 Nordeste 4 Este 0 -- -- 91
2019-08-26 00:00:00 17.7 0 Calma 4 Nordeste 0 -- -- 87
2019-08-25 23:00:00 19.4 0 Calma 3 Nordeste 0 -- -- 83
2019-08-25 22:00:00 21.3 0 Calma 3 Este 0 -- -- 76
2019-08-25 21:00:00 23 0 Calma 2 Este 0 -- -- 68
2019-08-25 20:00:00 26.6 0 Calma 6 Oeste 0 -- -- 55
2019-08-25 19:00:00 30.1 2 Oeste 9 Oeste 0 -- -- 39
2019-08-25 18:00:00 30.9 4 Oeste 18 Oeste 0 -- -- 44
2019-08-25 17:00:00 31.8 5 Sudoeste 19 Oeste 0 -- -- 45
2019-08-25 16:00:00 32.2 6 Sudoeste 24 Sudoeste 0 -- -- 46
2019-08-25 15:00:00 33 5 Oeste 17 Oeste 0 -- -- 34
2019-08-25 14:00:00 32 5 Oeste 16 Sudeste 0 -- -- 34
2019-08-25 13:00:00 30.8 3 Sudeste 12 Este 0 -- -- 45
2019-08-25 12:00:00 28.1 3 Sudoeste 9 Sudeste 0 -- -- 49
2019-08-25 11:00:00 24.5 3 Sur 9 Este 0 -- -- 67
2019-08-25 10:00:00 19 0 Calma 2 Este 0 -- -- 99
2019-08-25 09:00:00 16.5 2 Este 3 Nordeste 0.2 -- -- 100
2019-08-25 08:00:00 14 2 Nordeste 4 Este 0 -- -- 99
2019-08-25 07:00:00 13.7 0 Calma 3 Nordeste 0 -- -- 98
2019-08-25 06:00:00 14.2 0 Calma 4 Nordeste 0 -- -- 98
2019-08-25 05:00:00 14.7 0 Calma 4 Nordeste 0 -- -- 98
2019-08-25 04:00:00 15.2 0 Calma 3 Nordeste 0 -- -- 97
2019-08-25 03:00:00 16.1 0 Calma 3 Nordeste 0 -- -- 97
2019-08-25 02:00:00 17 2 Nordeste 4 Este 0 -- -- 97
2019-08-25 01:00:00 17.9 2 Este 3 Este 0 -- -- 96
2019-08-25 00:00:00 19.2 0 Calma 3 Este 0 -- -- 96
2019-08-24 23:00:00 20 0 Calma 3 Sudoeste 0 -- -- 95
2019-08-24 22:00:00 21 0 Calma 5 Oeste 0 -- -- 95
2019-08-24 21:00:00 21.7 0 Calma 5 Sudoeste 0 -- -- 94
2019-08-24 20:00:00 22.4 0 Calma 11 Oeste 0.6 -- -- 91
2019-08-24 19:00:00 25.8 5 Oeste 13 Oeste 0 -- -- 70
2019-08-24 18:00:00 27.9 4 Este 14 Este 0 -- -- 55
2019-08-24 17:00:00 29.8 4 Sudeste 18 Oeste 0 -- -- 50
2019-08-24 16:00:00 30.7 5 Este 20 Sudeste 0 -- -- 46
2019-08-24 15:00:00 31 5 Sudoeste 15 Sudeste 0 -- -- 45
2019-08-24 14:00:00 31 4 Sudeste 15 Sudeste 0 -- -- 43
2019-08-24 13:00:00 30.6 4 Sur 15 Este 0 -- -- 42
2019-08-24 12:00:00 28.3 3 Sur 14 Sudeste 0 -- -- 50
2019-08-24 11:00:00 25.2 3 Sudoeste 7 Noroeste 0 -- -- 61
2019-08-24 10:00:00 20.3 0 Calma 2 Este 0 -- -- 86
2019-08-24 09:00:00 16.9 2 Nordeste 3 Este 0 -- -- 96
2019-08-24 08:00:00 14.2 0 Calma 4 Este 0 -- -- 97
2019-08-24 07:00:00 14.2 0 Calma 4 Nordeste 0 -- -- 96
2019-08-24 06:00:00 14.5 2 Este 5 Nordeste 0 -- -- 95
2019-08-24 05:00:00 14.7 2 Nordeste 3 Nordeste 0 -- -- 94
2019-08-24 04:00:00 15.2 0 Calma 4 Nordeste 0 -- -- 93
2019-08-24 03:00:00 15.5 0 Calma 4 Nordeste 0 -- -- 91
2019-08-24 02:00:00 16 2 Este 4 Este 0 -- -- 90
2019-08-24 01:00:00 16.6 2 Este 4 Nordeste 0 -- -- 88
2019-08-24 00:00:00 17.4 0 Calma 4 Este 0 -- -- 85
2019-08-23 23:00:00 18.5 0 Calma 5 Este 0 -- -- 81
2019-08-23 22:00:00 20 0 Calma 3 Este 0 -- -- 77
2019-08-23 21:00:00 22.4 0 Calma 3 Oeste 0 -- -- 69
2019-08-23 20:00:00 25.4 0 Calma 9 Sudoeste 0 -- -- 58
2019-08-23 19:00:00 28.2 3 Nordeste 11 Sudoeste 0 -- -- 47
2019-08-23 18:00:00 30.2 5 Oeste 16 Oeste 0 -- -- 42
2019-08-23 17:00:00 30.8 4 Este 15 Oeste 0 -- -- 41
2019-08-23 16:00:00 30.6 5 Oeste 17 Sudeste 0 -- -- 41
2019-08-23 15:00:00 31.9 6 Sur 15 Sudeste 0 -- -- 35
2019-08-23 14:00:00 31.5 4 Sudeste 15 Este 0 -- -- 36
2019-08-23 13:00:00 30.3 4 Este 11 Oeste 0 -- -- 36
2019-08-23 12:00:00 28 3 Sudoeste 9 Oeste 0 -- -- 44
2019-08-23 11:00:00 24.8 2 Este 6 Oeste 0 -- -- 50
2019-08-23 10:00:00 19.2 0 Calma 5 Oeste 0 -- -- 73
2019-08-23 09:00:00 15.4 0 Calma 3 Este 0 -- -- 83
2019-08-23 08:00:00 12.3 2 Nordeste 4 Nordeste 0 -- -- 91
2019-08-23 07:00:00 12 2 Este 4 Nordeste 0 -- -- 89
2019-08-23 06:00:00 12.5 2 Nordeste 4 Este 0 -- -- 88
2019-08-23 05:00:00 12.9 2 Nordeste 4 Este 0 -- -- 87
2019-08-23 04:00:00 13.2 2 Nordeste 4 Nordeste 0 -- -- 86
2019-08-23 03:00:00 13.2 3 Nordeste 4 Nordeste 0 -- -- 87
2019-08-23 02:00:00 13.3 2 Nordeste 5 Nordeste 0 -- -- 88
2019-08-23 01:00:00 14 2 Nordeste 4 Nordeste 0 -- -- 86
2019-08-23 00:00:00 15 0 Calma 4 Este 0 -- -- 82